createdAt,value
2023-03-26T00:02:44.005Z,2.10
2023-03-26T00:05:49.523Z,2.30
2023-03-26T00:08:52.800Z,1.90
2023-03-26T00:11:55.630Z,1.93
2023-03-26T00:14:57.844Z,1.70
2023-03-26T00:18:00.827Z,2.30
2023-03-26T00:21:05.677Z,1.90
2023-03-26T00:24:15.053Z,2.03
2023-03-26T00:27:17.615Z,1.83
2023-03-26T00:30:20.415Z,1.83
2023-03-26T00:33:23.134Z,1.97
2023-03-26T00:36:26.808Z,2.07
2023-03-26T00:39:29.695Z,2.00
2023-03-26T00:42:32.648Z,2.73
2023-03-26T00:45:34.614Z,2.30
2023-03-26T00:48:45.113Z,2.00
2023-03-26T00:51:47.978Z,2.30
2023-03-26T00:54:53.656Z,2.00
2023-03-26T00:57:56.392Z,2.17
2023-03-26T01:01:09.392Z,2.30
2023-03-26T01:04:31.405Z,2.00
2023-03-26T01:07:35.225Z,2.17
2023-03-26T01:10:38.771Z,2.20
2023-03-26T01:13:48.455Z,2.20
2023-03-26T01:16:56.648Z,2.00
2023-03-26T01:20:19.307Z,2.00
2023-03-26T01:23:24.751Z,1.80
2023-03-26T01:26:36.523Z,2.00
2023-03-26T01:29:48.186Z,1.60
2023-03-26T01:33:14.304Z,1.93
2023-03-26T01:36:33.289Z,1.90
2023-03-26T01:39:49.208Z,1.97
2023-03-26T01:43:11.341Z,1.70
2023-03-26T01:46:16.252Z,1.77
2023-03-26T01:49:19.227Z,1.80
2023-03-26T01:52:25.300Z,1.93
2023-03-26T01:55:43.593Z,1.90
2023-03-26T01:59:04.301Z,1.67
2023-03-26T02:02:12.419Z,1.53
2023-03-26T02:05:51.340Z,1.30
2023-03-26T02:08:58.134Z,1.50
2023-03-26T02:12:03.547Z,1.63
2023-03-26T02:15:06.645Z,1.77
2023-03-26T02:18:13.391Z,2.10
2023-03-26T02:21:21.425Z,1.50
2023-03-26T02:24:23.731Z,1.70
2023-03-26T02:27:25.838Z,1.53
2023-03-26T02:30:29.793Z,1.43
2023-03-26T02:33:32.697Z,1.50
2023-03-26T02:36:36.136Z,1.20
2023-03-26T02:39:38.389Z,1.40
2023-03-26T02:42:40.793Z,1.27
2023-03-26T02:45:42.986Z,1.20
2023-03-26T02:48:45.341Z,1.50
2023-03-26T02:51:47.325Z,1.50
2023-03-26T02:54:49.677Z,1.40
2023-03-26T02:57:51.717Z,1.20
2023-03-26T03:00:57.103Z,1.20
2023-03-26T03:04:01.454Z,1.47
2023-03-26T03:07:03.763Z,1.70
2023-03-26T03:10:08.671Z,1.50
2023-03-26T03:13:10.976Z,1.30
2023-03-26T03:16:13.012Z,1.30
2023-03-26T03:19:15.801Z,1.30
2023-03-26T03:22:17.875Z,1.47
2023-03-26T03:25:22.257Z,1.20
2023-03-26T03:28:24.989Z,1.60
2023-03-26T03:31:27.367Z,1.57
2023-03-26T03:34:29.443Z,1.50
2023-03-26T03:37:31.781Z,1.40
2023-03-26T03:40:33.944Z,1.60
2023-03-26T03:43:36.331Z,1.60
2023-03-26T03:46:38.339Z,1.47
2023-03-26T03:49:41.318Z,1.77
2023-03-26T03:52:43.314Z,1.60
2023-03-26T03:55:53.297Z,1.60
2023-03-26T03:58:58.296Z,1.30
2023-03-26T04:02:00.980Z,1.40
2023-03-26T04:05:04.120Z,1.40
2023-03-26T04:08:06.784Z,1.60
2023-03-26T04:11:08.796Z,1.77
2023-03-26T04:14:11.258Z,1.20
2023-03-26T04:17:15.984Z,1.50
2023-03-26T04:20:19.475Z,1.70
2023-03-26T04:23:22.572Z,1.47
2023-03-26T04:26:24.889Z,1.70
2023-03-26T04:29:30.667Z,1.90
2023-03-26T04:32:38.243Z,1.40
2023-03-26T04:35:41.874Z,1.43
2023-03-26T04:38:46.303Z,1.30
2023-03-26T04:41:48.590Z,1.57
2023-03-26T04:44:51.016Z,1.20
2023-03-26T04:47:53.114Z,1.90
2023-03-26T04:50:55.545Z,1.53
2023-03-26T04:54:00.007Z,1.30
2023-03-26T04:57:05.975Z,1.50
2023-03-26T05:00:20.405Z,1.20
2023-03-26T05:03:22.849Z,1.30
2023-03-26T05:06:28.580Z,1.10
2023-03-26T05:09:30.918Z,1.17
2023-03-26T05:12:32.929Z,1.13
2023-03-26T05:15:35.399Z,1.67
2023-03-26T05:18:37.635Z,1.23
2023-03-26T05:21:40.380Z,1.37
2023-03-26T05:24:42.368Z,1.33
2023-03-26T05:27:45.634Z,1.10
2023-03-26T05:30:47.769Z,1.07
2023-03-26T05:33:50.887Z,1.10
2023-03-26T05:36:53.129Z,1.30
2023-03-26T05:39:55.473Z,1.20
2023-03-26T05:42:57.522Z,1.13
2023-03-26T05:46:00.361Z,1.10
2023-03-26T05:49:02.715Z,1.00
2023-03-26T05:52:05.524Z,0.93
2023-03-26T05:55:08.432Z,0.83
2023-03-26T05:58:10.690Z,1.80
2023-03-26T06:01:17.183Z,0.70
2023-03-26T06:04:19.842Z,0.90
2023-03-26T06:07:22.603Z,1.03
2023-03-26T06:10:24.888Z,0.80
2023-03-26T06:13:27.607Z,0.90
2023-03-26T06:16:29.928Z,0.63
2023-03-26T06:19:32.062Z,0.87
2023-03-26T06:22:34.389Z,0.60
2023-03-26T06:25:37.415Z,0.70
2023-03-26T06:28:39.738Z,0.90
2023-03-26T06:31:42.221Z,0.80
2023-03-26T06:34:44.564Z,0.90
2023-03-26T06:37:46.747Z,0.90
2023-03-26T06:40:49.048Z,0.80
2023-03-26T06:43:51.202Z,0.90
2023-03-26T06:46:53.533Z,1.00
2023-03-26T06:49:55.593Z,1.00
2023-03-26T06:52:58.393Z,1.00
2023-03-26T06:56:00.624Z,1.07
2023-03-26T06:59:03.045Z,1.10
2023-03-26T07:02:05.279Z,1.00
2023-03-26T07:05:07.759Z,0.80
2023-03-26T07:08:09.857Z,0.90
2023-03-26T07:11:12.264Z,1.30
2023-03-26T07:14:14.393Z,0.90
2023-03-26T07:17:16.681Z,0.90
2023-03-26T07:20:18.821Z,0.77
2023-03-26T07:23:21.455Z,0.90
2023-03-26T07:27:02.069Z,1.13
2023-03-26T07:30:06.585Z,1.08
2023-03-26T07:33:37.726Z,1.00
2023-03-26T07:36:56.309Z,1.60
2023-03-26T07:40:16.149Z,0.93
2023-03-26T07:43:40.911Z,1.10
2023-03-26T07:46:43.184Z,1.40
2023-03-26T07:49:45.725Z,1.00
2023-03-26T07:52:48.160Z,1.00
2023-03-26T07:55:53.544Z,1.10
2023-03-26T07:59:10.606Z,1.17
2023-03-26T08:02:41.235Z,1.20
2023-03-26T08:05:50.499Z,0.93
2023-03-26T08:09:14.663Z,0.90
2023-03-26T08:12:37.419Z,1.13
2023-03-26T08:16:09.990Z,12.63
2023-03-26T08:19:35.098Z,1.30
2023-03-26T08:22:50.842Z,1.37
2023-03-26T08:26:12.809Z,1.10
2023-03-26T08:29:23.458Z,1.27
2023-03-26T08:32:26.541Z,1.60
2023-03-26T08:35:29.707Z,1.60
2023-03-26T08:38:31.713Z,1.67
2023-03-26T08:42:07.523Z,4.10
2023-03-26T08:45:24.844Z,1.80
2023-03-26T08:48:36.182Z,1.90
2023-03-26T08:52:06.456Z,1.83
2023-03-26T08:55:33.323Z,1.30
2023-03-26T08:58:46.965Z,1.60
2023-03-26T09:02:25.972Z,1.70
2023-03-26T09:05:34.408Z,2.03
2023-03-26T09:08:54.870Z,2.47
2023-03-26T09:12:25.520Z,2.30
2023-03-26T09:15:49.297Z,1.57
2023-03-26T09:19:16.084Z,1.40
2023-03-26T09:22:43.189Z,1.30
2023-03-26T09:26:12.957Z,1.80
2023-03-26T09:29:38.350Z,1.20
2023-03-26T09:33:07.419Z,1.73
2023-03-26T09:36:15.695Z,1.58
2023-03-26T09:39:44.718Z,1.00
2023-03-26T09:43:19.681Z,1.33
2023-03-26T09:46:32.521Z,1.20
2023-03-26T09:49:49.751Z,1.08
2023-03-26T09:53:15.619Z,0.90
2023-03-26T09:56:41.408Z,1.00
2023-03-26T10:00:14.355Z,1.03
2023-03-26T10:03:36.288Z,1.10
2023-03-26T10:06:59.457Z,1.17
2023-03-26T10:10:26.584Z,0.75
2023-03-26T10:13:55.072Z,1.10
2023-03-26T10:17:12.304Z,2.08
2023-03-26T10:20:26.001Z,1.10
2023-03-26T10:23:56.967Z,1.00
2023-03-26T10:27:14.074Z,1.25
2023-03-26T10:30:32.331Z,1.10
2023-03-26T10:34:01.826Z,1.13
2023-03-26T10:37:12.196Z,0.70
2023-03-26T10:40:36.287Z,1.00
2023-03-26T10:44:08.768Z,1.50
2023-03-26T10:47:35.986Z,1.60
2023-03-26T10:51:16.078Z,1.40
2023-03-26T10:54:36.996Z,2.80
2023-03-26T10:58:00.870Z,3.50
2023-03-26T11:01:37.186Z,3.93
2023-03-26T11:04:42.331Z,2.63
2023-03-26T11:07:59.437Z,2.78
2023-03-26T11:11:45.216Z,2.63
2023-03-26T11:15:01.655Z,3.28
2023-03-26T11:18:13.774Z,5.88
2023-03-26T11:21:42.663Z,3.83
2023-03-26T11:25:23.714Z,2.45
2023-03-26T11:29:32.322Z,3.08
2023-03-26T11:32:42.959Z,2.53
2023-03-26T11:35:49.383Z,1.98
2023-03-26T11:38:55.737Z,2.60
2023-03-26T11:42:11.618Z,1.95
2023-03-26T11:45:22.039Z,2.13
2023-03-26T11:48:34.133Z,2.03
2023-03-26T11:51:38.923Z,1.67
2023-03-26T11:54:41.051Z,1.30
2023-03-26T11:57:51.360Z,1.13
2023-03-26T12:00:54.795Z,1.30
2023-03-26T12:04:15.816Z,1.23
2023-03-26T12:07:23.002Z,1.60
2023-03-26T12:10:25.606Z,1.25
2023-03-26T12:13:52.834Z,1.40
2023-03-26T12:17:07.874Z,1.30
2023-03-26T12:20:42.599Z,1.30
2023-03-26T12:23:57.777Z,1.27
2023-03-26T12:27:22.849Z,1.27
2023-03-26T12:30:28.137Z,1.90
2023-03-26T12:33:35.186Z,2.33
2023-03-26T12:36:39.066Z,1.60
2023-03-26T12:40:10.778Z,1.20
2023-03-26T12:44:45.243Z,1.60
2023-03-26T12:47:57.522Z,1.90
2023-03-26T12:51:06.898Z,1.73
2023-03-26T12:54:28.825Z,1.80
2023-03-26T12:57:39.118Z,1.30
2023-03-26T13:00:44.594Z,1.40
2023-03-26T13:04:18.326Z,1.60
2023-03-26T13:07:37.668Z,1.53
2023-03-26T13:10:44.022Z,1.53
2023-03-26T13:14:07.950Z,1.53
2023-03-26T13:17:21.756Z,1.37
2023-03-26T13:20:49.097Z,1.15
2023-03-26T13:24:09.490Z,1.03
2023-03-26T13:27:26.971Z,1.50
2023-03-26T13:30:44.836Z,1.67
2023-03-26T13:34:10.060Z,1.53
2023-03-26T13:37:17.001Z,1.30
2023-03-26T13:40:43.959Z,1.30
2023-03-26T13:44:02.282Z,1.60
2023-03-26T13:47:13.469Z,1.43
2023-03-26T13:50:29.337Z,1.40
2023-03-26T13:53:58.416Z,2.23
2023-03-26T13:57:10.061Z,1.93
2023-03-26T14:00:32.614Z,1.50
2023-03-26T14:03:58.024Z,1.50
2023-03-26T14:07:15.750Z,1.30
2023-03-26T14:10:18.788Z,1.23
2023-03-26T14:13:20.821Z,1.17
2023-03-26T14:16:34.403Z,1.37
2023-03-26T14:20:01.286Z,1.63
2023-03-26T14:23:15.970Z,1.73
2023-03-26T14:26:37.205Z,1.60
2023-03-26T14:29:56.216Z,1.80
2023-03-26T14:33:30.352Z,1.50
2023-03-26T14:37:06.040Z,1.70
2023-03-26T14:40:16.951Z,1.63
2023-03-26T14:44:05.562Z,1.88
2023-03-26T14:47:24.710Z,1.75
2023-03-26T14:50:42.609Z,1.70
2023-03-26T14:53:50.450Z,1.83
2023-03-26T14:57:00.085Z,1.80
2023-03-26T15:00:23.615Z,1.25
2023-03-26T15:04:13.874Z,1.80
2023-03-26T15:08:03.298Z,1.58
2023-03-26T15:11:37.456Z,1.50
2023-03-26T15:14:54.296Z,1.88
2023-03-26T15:18:27.003Z,2.10
2023-03-26T15:21:52.440Z,1.98
2023-03-26T15:25:04.227Z,1.87
2023-03-26T15:28:46.700Z,2.40
2023-03-26T15:32:07.368Z,1.90
2023-03-26T15:35:28.005Z,1.70
2023-03-26T15:39:09.420Z,2.00
2023-03-26T15:42:19.998Z,1.50
2023-03-26T15:45:36.295Z,1.40
2023-03-26T15:48:54.860Z,1.40
2023-03-26T15:52:56.023Z,1.43
2023-03-26T15:56:16.064Z,1.87
2023-03-26T15:59:40.090Z,1.67
2023-03-26T16:03:09.548Z,1.87
2023-03-26T16:06:28.161Z,1.97
2023-03-26T16:09:56.970Z,1.90
2023-03-26T16:13:23.389Z,1.80
2023-03-26T16:17:08.034Z,1.60
2023-03-26T16:20:32.606Z,2.00
2023-03-26T16:23:47.566Z,2.23
2023-03-26T16:27:29.810Z,2.73
2023-03-26T16:30:33.027Z,2.77
2023-03-26T16:33:50.561Z,2.33
2023-03-26T16:36:54.342Z,2.53
2023-03-26T16:40:16.554Z,2.57
2023-03-26T16:43:42.995Z,3.07
2023-03-26T16:47:00.292Z,2.77
2023-03-26T16:50:09.590Z,2.90
2023-03-26T16:53:29.957Z,3.30
2023-03-26T16:56:47.572Z,2.53
2023-03-26T17:00:16.448Z,2.50
2023-03-26T17:03:53.173Z,2.03
2023-03-26T17:07:04.149Z,2.90
2023-03-26T17:10:32.204Z,2.73
2023-03-26T17:14:03.353Z,3.83
2023-03-26T17:17:36.636Z,5.30
2023-03-26T17:20:49.795Z,7.50
2023-03-26T17:24:16.482Z,9.37
2023-03-26T17:27:28.251Z,10.07
2023-03-26T17:30:43.077Z,24.10
2023-03-26T17:33:45.415Z,25.53
2023-03-26T17:36:56.467Z,21.37
2023-03-26T17:40:01.613Z,17.43
2023-03-26T17:43:09.937Z,32.13
2023-03-26T17:46:42.803Z,30.80
2023-03-26T17:49:47.298Z,29.77
2023-03-26T17:52:55.726Z,33.40
2023-03-26T17:56:04.023Z,34.50
2023-03-26T17:59:11.455Z,23.90
2023-03-26T18:02:21.980Z,27.20
2023-03-26T18:05:28.958Z,25.80
2023-03-26T18:08:31.280Z,29.00
2023-03-26T18:11:36.184Z,32.27
2023-03-26T18:15:01.544Z,36.13
2023-03-26T18:18:17.999Z,42.77
2023-03-26T18:21:29.344Z,38.80
2023-03-26T18:24:38.371Z,31.13
2023-03-26T18:27:41.078Z,43.70
2023-03-26T18:30:50.741Z,58.30
2023-03-26T18:33:59.238Z,59.30
2023-03-26T18:37:19.632Z,56.20
2023-03-26T18:40:24.417Z,47.83
2023-03-26T18:43:34.727Z,49.83
2023-03-26T18:46:38.888Z,47.07
2023-03-26T18:49:44.562Z,50.03
2023-03-26T18:52:46.981Z,57.60
2023-03-26T18:55:54.204Z,43.67
2023-03-26T18:58:59.042Z,35.80
2023-03-26T19:02:10.173Z,34.13
2023-03-26T19:05:15.552Z,26.73
2023-03-26T19:08:18.253Z,24.73
2023-03-26T19:11:30.776Z,23.23
2023-03-26T19:14:36.930Z,19.53
2023-03-26T19:17:49.630Z,16.30
2023-03-26T19:21:10.921Z,21.77
2023-03-26T19:24:16.385Z,20.90
2023-03-26T19:27:18.462Z,25.83
2023-03-26T19:30:35.536Z,33.33
2023-03-26T19:33:41.142Z,34.83
2023-03-26T19:37:01.733Z,33.40
2023-03-26T19:40:19.087Z,34.10
2023-03-26T19:43:22.809Z,55.97
2023-03-26T19:46:26.682Z,41.90
2023-03-26T19:49:32.584Z,36.60
2023-03-26T19:52:38.342Z,31.93
2023-03-26T19:55:42.236Z,31.47
2023-03-26T19:58:45.045Z,40.80
2023-03-26T20:01:47.472Z,53.93
2023-03-26T20:04:49.696Z,47.83
2023-03-26T20:07:54.798Z,57.60
2023-03-26T20:11:00.059Z,46.63
2023-03-26T20:14:12.440Z,39.60
2023-03-26T20:17:20.277Z,39.33
2023-03-26T20:20:27.659Z,42.87
2023-03-26T20:23:29.742Z,39.90
2023-03-26T20:26:32.086Z,38.57
2023-03-26T20:29:35.448Z,40.10
2023-03-26T20:32:38.051Z,40.73
2023-03-26T20:35:40.632Z,34.50
2023-03-26T20:38:44.673Z,22.83
2023-03-26T20:41:48.788Z,24.43
2023-03-26T20:44:51.154Z,16.77
2023-03-26T20:47:54.187Z,20.80
2023-03-26T20:50:58.071Z,29.40
2023-03-26T20:54:00.649Z,33.47
2023-03-26T20:57:03.383Z,34.77
2023-03-26T21:00:16.230Z,34.20
2023-03-26T21:03:19.217Z,40.83
2023-03-26T21:06:21.229Z,42.80
2023-03-26T21:09:24.253Z,43.87
2023-03-26T21:12:34.904Z,53.73
2023-03-26T21:15:37.594Z,54.40
2023-03-26T21:18:41.237Z,54.60
2023-03-26T21:21:48.035Z,40.03
2023-03-26T21:24:57.022Z,43.90
2023-03-26T21:28:06.146Z,43.83
2023-03-26T21:31:36.651Z,44.17
2023-03-26T21:34:47.868Z,41.63
2023-03-26T21:37:58.294Z,41.73
2023-03-26T21:41:07.438Z,39.63
2023-03-26T21:44:10.956Z,37.57
2023-03-26T21:47:13.770Z,25.50
2023-03-26T21:50:19.318Z,30.37
2023-03-26T21:53:22.568Z,24.17
2023-03-26T21:56:47.394Z,28.83
2023-03-26T22:00:14.488Z,27.80
2023-03-26T22:03:34.703Z,28.30
2023-03-26T22:06:44.143Z,27.63
2023-03-26T22:09:46.469Z,24.63
2023-03-26T22:12:49.414Z,18.70
2023-03-26T22:15:51.583Z,12.50
2023-03-26T22:18:54.297Z,10.40
2023-03-26T22:21:56.338Z,10.63
2023-03-26T22:24:59.544Z,9.63
2023-03-26T22:28:02.220Z,9.77
2023-03-26T22:31:08.967Z,10.07
2023-03-26T22:34:11.718Z,8.47
2023-03-26T22:37:16.171Z,7.53
2023-03-26T22:40:18.496Z,8.20
2023-03-26T22:43:20.760Z,8.17
2023-03-26T22:46:23.803Z,7.07
2023-03-26T22:49:27.497Z,7.17
2023-03-26T22:52:30.444Z,6.53
2023-03-26T22:55:33.068Z,6.57
2023-03-26T22:58:35.442Z,6.00
2023-03-26T23:01:37.810Z,5.70
2023-03-26T23:04:40.349Z,5.20
2023-03-26T23:07:42.640Z,5.40
2023-03-26T23:10:45.509Z,5.90
2023-03-26T23:13:48.077Z,5.30
2023-03-26T23:16:50.328Z,5.03
2023-03-26T23:19:52.820Z,5.13
2023-03-26T23:22:54.885Z,5.13
2023-03-26T23:25:58.995Z,5.30
2023-03-26T23:29:02.591Z,5.40
2023-03-26T23:32:23.393Z,5.10
2023-03-26T23:35:26.422Z,4.50
2023-03-26T23:38:29.428Z,5.90
2023-03-26T23:41:46.341Z,5.90
2023-03-26T23:44:48.663Z,6.70
2023-03-26T23:47:51.190Z,6.47
2023-03-26T23:51:03.373Z,5.87
2023-03-26T23:54:07.690Z,6.13
2023-03-26T23:57:10.616Z,5.77
